Aérodrome :
LOGIN :

S'inscrire | Disclaimer

   EN    FR    IT 

 










Légende :    VFR   VFR Marginal   IFR   IFR Intensif   IFR Très Intensif
Visi : 
Plafond : 
>= 8 km
>= 3000ft
5 à 8 km
1000 à 3000 ft
1500m à 5 km
500 à 1000 ft
800 à 1500m
200 à 500 ft
< 800m
< 200 ft
Symboles :   Orages  Brouillard  Fortes neiges  Fortes précipitations  Vent > 20 kt
SIGMETs :   Divers  Orages  Givrage  Turbulence  Onde Orograph.  Cendres Volcan.






- Altitude de l'aérodrome : 2356 ft


LZTT - Poprad Tatry

DERNIER METAR :
  • 171530Z 03005KT CAVOK 06/01 Q1018 NOSIG

METARs EXPIRÉS :
  • 171500Z 04005KT 350V130 CAVOK 07/01 Q1018 NOSIG
  • 171430Z 10003KT 070V140 CAVOK 07/01 Q1018 NOSIG
  • 171400Z 12006KT CAVOK 08/01 Q1018 NOSIG
  • 171330Z 13005KT CAVOK 09/02 Q1018 NOSIG
  • 171300Z 12007KT CAVOK 09/02 Q1018 NOSIG

TAF TAF LZTT
Valide du 17 à 12h jusqu'au 18 à 12h UTC


171100Z 1712/1812 13008KT CAVOK
BECMG 1717/1719 23004KT
BECMG 1800/1802 9999 SCT020 BKN060
PROB40
TEMPO 1800/1808 4000 -FZRA SCT005 BKN023
BECMG 1803/1805 26015KT



MET'MAP, la Météo Aéronautique d'un coup d'oeil ! - Copyright ORBIFLY Décembre 2007 - Disclaimer

ORBIFLY MET'MAP TEAM :

Programmation & Développement : Alexandra Zaïnal
Sur une idée originale de : Baudouin d'Aumeries
Assistance à la programmation : Marc-Olivier Méhu
Soutien technique & logistique : Manuel Goepfert

Contact : metmap@orbifly.com




SOURCES & CREDITS :

   NOAA